createdAt,value
2018-10-21T00:00:30.805Z,16.63
2018-10-21T00:02:59.185Z,15.67
2018-10-21T00:05:27.538Z,17.73
2018-10-21T00:07:55.908Z,16.00
2018-10-21T00:10:24.247Z,18.80
2018-10-21T00:12:52.604Z,19.17
2018-10-21T00:15:20.984Z,16.03
2018-10-21T00:17:49.401Z,17.20
2018-10-21T00:20:17.749Z,14.67
2018-10-21T00:22:46.113Z,21.17
2018-10-21T00:25:14.444Z,18.73
2018-10-21T00:27:42.907Z,17.17
2018-10-21T00:30:11.319Z,21.53
2018-10-21T00:32:45.075Z,18.37
2018-10-21T00:35:13.429Z,19.63
2018-10-21T00:37:41.904Z,17.20
2018-10-21T00:40:10.236Z,17.20
2018-10-21T00:42:38.703Z,20.60
2018-10-21T00:45:07.774Z,20.97
2018-10-21T00:47:36.079Z,18.40
2018-10-21T00:50:05.379Z,22.40
2018-10-21T00:52:33.708Z,18.47
2018-10-21T00:55:02.102Z,18.83
2018-10-21T00:57:30.427Z,17.63
2018-10-21T00:59:58.908Z,17.97
2018-10-21T01:02:27.285Z,17.83
2018-10-21T01:04:55.652Z,16.07
2018-10-21T01:07:23.975Z,15.67
2018-10-21T01:09:52.444Z,17.97
2018-10-21T01:12:20.787Z,18.57
2018-10-21T01:14:49.148Z,22.40
2018-10-21T01:17:17.553Z,18.70
2018-10-21T01:19:46.188Z,16.77
2018-10-21T01:22:14.509Z,17.00
2018-10-21T01:24:42.859Z,20.40
2018-10-21T01:27:11.266Z,18.57
2018-10-21T01:29:43.127Z,18.03
2018-10-21T01:32:11.460Z,18.40
2018-10-21T01:34:40.595Z,24.30
2018-10-21T01:37:08.983Z,17.83
2018-10-21T01:41:03.940Z,20.30
2018-10-21T01:43:33.258Z,19.07
2018-10-21T01:46:02.207Z,15.97
2018-10-21T01:48:31.351Z,18.53
2018-10-21T01:50:59.716Z,18.47
2018-10-21T01:53:28.040Z,19.03
2018-10-21T01:55:56.385Z,18.43
2018-10-21T01:58:24.705Z,18.60
2018-10-21T02:00:53.073Z,19.73
2018-10-21T02:03:21.398Z,17.60
2018-10-21T02:05:49.769Z,21.13
2018-10-21T02:08:18.099Z,18.77
2018-10-21T02:10:46.447Z,18.47
2018-10-21T02:13:14.789Z,21.20
2018-10-21T02:15:43.127Z,20.97
2018-10-21T02:18:11.487Z,21.53
2018-10-21T02:20:39.824Z,17.23
2018-10-21T02:23:08.469Z,20.10
2018-10-21T02:25:36.824Z,20.33
2018-10-21T02:28:05.221Z,18.57
2018-10-21T02:30:33.561Z,22.40
2018-10-21T02:33:02.237Z,21.33
2018-10-21T02:35:30.593Z,21.30
2018-10-21T02:37:59.080Z,19.10
2018-10-21T02:41:43.222Z,21.80
2018-10-21T02:44:20.248Z,19.00
2018-10-21T02:46:49.595Z,21.83
2018-10-21T02:49:18.477Z,18.67
2018-10-21T02:51:52.220Z,19.33
2018-10-21T02:54:30.151Z,19.53
2018-10-21T02:56:58.601Z,21.90
2018-10-21T02:59:27.248Z,23.87
2018-10-21T03:01:55.735Z,21.10
2018-10-21T03:04:24.558Z,17.70
2018-10-21T03:06:53.247Z,22.23
2018-10-21T03:09:21.677Z,19.90
2018-10-21T03:11:49.947Z,20.37
2018-10-21T03:14:18.280Z,21.17
2018-10-21T03:16:46.727Z,23.47
2018-10-21T03:19:15.178Z,18.10
2018-10-21T03:21:43.517Z,23.17
2018-10-21T03:24:11.862Z,21.00
2018-10-21T03:26:40.201Z,21.33
2018-10-21T03:29:08.607Z,21.60
2018-10-21T03:31:36.935Z,20.53
2018-10-21T03:34:05.686Z,19.80
2018-10-21T03:36:33.838Z,21.67
2018-10-21T03:39:02.436Z,18.73
2018-10-21T03:41:30.991Z,20.63
2018-10-21T03:43:59.391Z,22.27
2018-10-21T03:46:27.720Z,23.10
2018-10-21T03:48:56.075Z,23.93
2018-10-21T03:51:24.400Z,25.17
2018-10-21T03:53:52.814Z,23.17
2018-10-21T03:56:21.238Z,21.37
2018-10-21T03:58:49.603Z,22.17
2018-10-21T04:01:17.936Z,22.70
2018-10-21T04:03:46.303Z,23.93
2018-10-21T04:06:14.625Z,22.13
2018-10-21T04:08:42.975Z,23.50
2018-10-21T04:11:11.346Z,20.97
2018-10-21T04:13:39.698Z,23.37
2018-10-21T04:16:08.167Z,22.70
2018-10-21T04:18:36.508Z,20.37
2018-10-21T04:21:04.876Z,23.40
2018-10-21T04:23:33.221Z,23.87
2018-10-21T04:26:01.560Z,23.33
2018-10-21T04:28:29.913Z,21.87
2018-10-21T04:30:58.251Z,23.50
2018-10-21T04:33:42.681Z,23.70
2018-10-21T04:36:12.510Z,23.53
2018-10-21T04:38:52.212Z,20.73
2018-10-21T04:41:20.623Z,23.67
2018-10-21T04:43:48.983Z,24.47
2018-10-21T04:46:17.357Z,25.47
2018-10-21T04:48:45.691Z,24.23
2018-10-21T04:51:14.018Z,23.63
2018-10-21T04:53:42.375Z,22.97
2018-10-21T04:56:10.813Z,24.93
2018-10-21T04:58:39.148Z,28.70
2018-10-21T05:01:07.516Z,27.40
2018-10-21T05:03:35.845Z,23.43
2018-10-21T05:06:04.440Z,26.60
2018-10-21T05:08:32.781Z,26.87
2018-10-21T05:11:01.130Z,28.93
2018-10-21T05:13:29.462Z,28.57
2018-10-21T05:15:57.861Z,30.73
2018-10-21T05:18:26.182Z,29.27
2018-10-21T05:20:54.542Z,28.40
2018-10-21T05:23:22.904Z,25.77
2018-10-21T05:25:51.250Z,26.57
2018-10-21T05:28:19.574Z,26.17
2018-10-21T05:30:47.923Z,29.73
2018-10-21T05:33:16.251Z,32.27
2018-10-21T05:35:44.688Z,27.37
2018-10-21T05:38:13.033Z,28.97
2018-10-21T05:40:41.460Z,29.50
2018-10-21T05:43:09.763Z,29.27
2018-10-21T05:45:38.116Z,29.03
2018-10-21T05:48:06.483Z,27.53
2018-10-21T05:50:34.836Z,26.90
2018-10-21T05:53:03.153Z,28.70
2018-10-21T05:55:31.495Z,31.07
2018-10-21T05:58:00.001Z,27.07
2018-10-21T06:00:28.336Z,30.13
2018-10-21T06:02:56.685Z,28.10
2018-10-21T06:05:34.559Z,31.27
2018-10-21T06:08:02.900Z,29.97
2018-10-21T06:10:31.229Z,31.27
2018-10-21T06:12:59.715Z,32.90
2018-10-21T06:15:28.061Z,31.30
2018-10-21T06:17:56.456Z,28.03
2018-10-21T06:21:31.864Z,29.70
2018-10-21T06:24:00.194Z,29.90
2018-10-21T06:26:28.549Z,30.10
2018-10-21T06:28:56.886Z,31.30
2018-10-21T06:31:25.275Z,34.37
2018-10-21T06:33:53.600Z,26.97
2018-10-21T06:36:21.947Z,32.17
2018-10-21T06:38:50.277Z,30.73
2018-10-21T06:41:18.615Z,31.87
2018-10-21T06:43:46.931Z,34.33
2018-10-21T06:46:15.256Z,32.43
2018-10-21T06:48:43.588Z,32.40
2018-10-21T06:51:11.964Z,32.90
2018-10-21T06:53:40.268Z,32.43
2018-10-21T06:56:08.612Z,31.17
2018-10-21T06:58:36.985Z,31.97
2018-10-21T07:01:05.469Z,36.60
2018-10-21T07:03:33.804Z,34.40
2018-10-21T07:06:28.203Z,33.93
2018-10-21T07:08:58.042Z,30.30
2018-10-21T07:11:26.374Z,36.03
2018-10-21T07:13:54.702Z,33.83
2018-10-21T07:16:23.131Z,32.77
2018-10-21T07:18:51.962Z,31.80
2018-10-21T07:21:20.320Z,34.43
2018-10-21T07:23:48.823Z,33.43
2018-10-21T07:26:17.139Z,30.10
2018-10-21T07:28:45.484Z,33.73
2018-10-21T07:31:13.815Z,33.10
2018-10-21T07:33:42.237Z,32.63
2018-10-21T07:36:10.648Z,32.00
2018-10-21T07:38:38.908Z,32.40
2018-10-21T07:41:07.233Z,35.03
2018-10-21T07:43:35.623Z,31.20
2018-10-21T07:46:04.021Z,34.30
2018-10-21T07:48:32.435Z,30.87
2018-10-21T07:51:00.755Z,33.30
2018-10-21T07:53:29.089Z,34.27
2018-10-21T07:55:57.403Z,34.70
2018-10-21T07:58:25.745Z,33.57
2018-10-21T08:00:54.133Z,34.30
2018-10-21T08:03:22.444Z,32.00
2018-10-21T08:06:02.095Z,34.53
2018-10-21T08:08:30.477Z,35.60
2018-10-21T08:10:58.771Z,32.47
2018-10-21T08:13:27.807Z,32.60
2018-10-21T08:15:56.151Z,30.17
2018-10-21T08:18:24.519Z,29.97
2018-10-21T08:20:52.840Z,30.27
2018-10-21T08:23:21.187Z,33.10
2018-10-21T08:25:50.601Z,30.43
2018-10-21T08:28:19.072Z,28.70
2018-10-21T08:30:47.303Z,30.10
2018-10-21T08:33:15.639Z,29.57
2018-10-21T08:35:43.983Z,30.53
2018-10-21T08:38:12.403Z,28.17
2018-10-21T08:40:40.776Z,28.00
2018-10-21T08:43:09.098Z,29.23
2018-10-21T08:45:37.443Z,27.33
2018-10-21T08:48:05.792Z,29.37
2018-10-21T08:50:34.135Z,29.00
2018-10-21T08:53:02.460Z,27.20
2018-10-21T08:55:30.805Z,29.77
2018-10-21T08:57:59.155Z,28.70
2018-10-21T09:00:27.599Z,27.77
2018-10-21T09:02:56.001Z,28.73
2018-10-21T09:05:24.342Z,27.53
2018-10-21T09:07:52.674Z,29.57
2018-10-21T09:10:21.079Z,26.33
2018-10-21T09:12:49.401Z,26.07
2018-10-21T09:15:18.791Z,26.53
2018-10-21T09:17:47.012Z,31.97
2018-10-21T09:20:16.464Z,24.10
2018-10-21T09:22:44.791Z,24.00
2018-10-21T09:25:13.710Z,27.97
2018-10-21T09:27:42.863Z,25.57
2018-10-21T09:30:14.019Z,27.17
2018-10-21T09:32:42.368Z,27.47
2018-10-21T09:35:14.819Z,25.30
2018-10-21T09:37:43.558Z,31.67
2018-10-21T09:40:14.343Z,27.47
2018-10-21T09:42:42.675Z,23.53
2018-10-21T09:45:13.059Z,27.23
2018-10-21T09:47:41.415Z,27.30
2018-10-21T09:50:09.977Z,24.20
2018-10-21T09:52:38.297Z,25.63
2018-10-21T09:55:11.634Z,27.50
2018-10-21T09:57:39.960Z,26.50
2018-10-21T10:00:08.357Z,26.10
2018-10-21T10:02:42.211Z,24.13
2018-10-21T10:05:10.583Z,25.73
2018-10-21T10:07:38.927Z,23.33
2018-10-21T10:10:08.873Z,26.43
2018-10-21T10:12:37.180Z,25.20
2018-10-21T10:15:07.080Z,24.40
2018-10-21T10:17:35.459Z,23.83
2018-10-21T10:20:04.267Z,24.47
2018-10-21T10:22:32.612Z,26.03
2018-10-21T10:25:00.982Z,27.53
2018-10-21T10:27:29.295Z,25.60
2018-10-21T10:29:57.629Z,23.83
2018-10-21T10:32:25.977Z,24.53
2018-10-21T10:34:54.291Z,24.40
2018-10-21T10:37:22.640Z,24.17
2018-10-21T10:39:50.987Z,24.60
2018-10-21T10:42:19.400Z,27.30
2018-10-21T10:44:47.677Z,22.93
2018-10-21T10:47:16.077Z,24.03
2018-10-21T10:49:44.399Z,22.70
2018-10-21T10:52:12.833Z,22.43
2018-10-21T10:54:41.152Z,22.43
2018-10-21T10:57:09.492Z,22.20
2018-10-21T10:59:37.905Z,24.13
2018-10-21T11:02:06.444Z,24.73
2018-10-21T11:04:34.805Z,23.80
2018-10-21T11:07:03.174Z,19.50
2018-10-21T11:09:31.515Z,22.77
2018-10-21T11:11:59.860Z,23.70
2018-10-21T11:14:28.225Z,24.00
2018-10-21T11:16:56.559Z,22.47
2018-10-21T11:19:25.866Z,23.00
2018-10-21T11:21:54.314Z,21.77
2018-10-21T11:24:22.578Z,20.70
2018-10-21T11:26:51.107Z,20.87
2018-10-21T11:29:19.438Z,23.83
2018-10-21T11:31:47.917Z,20.43
2018-10-21T11:34:16.358Z,21.33
2018-10-21T11:36:45.149Z,25.70
2018-10-21T11:39:13.506Z,24.37
2018-10-21T11:41:41.887Z,19.67
2018-10-21T11:44:10.258Z,22.20
2018-10-21T11:46:38.852Z,21.90
2018-10-21T11:49:07.260Z,21.70
2018-10-21T11:51:35.604Z,20.43
2018-10-21T11:54:03.979Z,22.47
2018-10-21T11:56:33.014Z,20.17
2018-10-21T11:59:02.424Z,20.67
2018-10-21T12:01:30.786Z,19.03
2018-10-21T12:03:59.199Z,19.93
2018-10-21T12:06:27.612Z,19.53
2018-10-21T12:08:55.987Z,18.40
2018-10-21T12:11:24.347Z,18.67
2018-10-21T12:13:52.720Z,18.07
2018-10-21T12:16:21.572Z,18.50
2018-10-21T12:18:49.968Z,21.23
2018-10-21T12:21:18.320Z,17.73
2018-10-21T12:23:46.691Z,19.07
2018-10-21T12:26:15.238Z,16.43
2018-10-21T12:28:43.680Z,16.43
2018-10-21T12:31:12.103Z,11.50
2018-10-21T12:33:44.408Z,16.17
2018-10-21T12:36:14.243Z,17.47
2018-10-21T12:38:42.573Z,19.73
2018-10-21T12:41:11.550Z,18.10
2018-10-21T12:43:40.696Z,14.93
2018-10-21T12:46:09.050Z,13.60
2018-10-21T12:48:37.558Z,15.20
2018-10-21T12:51:05.956Z,17.57
2018-10-21T12:53:34.291Z,14.67
2018-10-21T12:56:02.651Z,10.30
2018-10-21T12:58:30.982Z,11.40
2018-10-21T13:00:59.341Z,15.20
2018-10-21T13:03:27.667Z,14.13
2018-10-21T13:05:56.027Z,16.03
2018-10-21T13:08:24.354Z,14.97
2018-10-21T13:10:52.814Z,14.60
2018-10-21T13:13:21.162Z,15.67
2018-10-21T13:15:49.535Z,12.13
2018-10-21T13:18:17.891Z,14.63
2018-10-21T13:20:46.254Z,13.63
2018-10-21T13:23:14.690Z,13.13
2018-10-21T13:25:43.035Z,12.67
2018-10-21T13:28:11.406Z,12.03
2018-10-21T13:30:39.730Z,8.57
2018-10-21T13:33:08.193Z,11.57
2018-10-21T13:35:36.560Z,9.83
2018-10-21T13:38:04.946Z,12.17
2018-10-21T13:40:33.311Z,12.17
2018-10-21T13:43:01.668Z,10.83
2018-10-21T13:45:30.001Z,15.90
2018-10-21T13:47:58.401Z,10.27
2018-10-21T13:50:26.723Z,11.83
2018-10-21T13:52:55.136Z,12.93
2018-10-21T13:55:23.423Z,10.43
2018-10-21T13:57:51.755Z,12.57
2018-10-21T14:00:20.116Z,11.37
2018-10-21T14:02:48.451Z,11.67
2018-10-21T14:05:16.779Z,12.47
2018-10-21T14:07:45.124Z,11.50
2018-10-21T14:10:13.544Z,12.17
2018-10-21T14:12:42.780Z,10.90
2018-10-21T14:15:11.136Z,12.33
2018-10-21T14:17:39.483Z,12.30
2018-10-21T14:20:09.135Z,12.17
2018-10-21T14:22:37.514Z,13.00
2018-10-21T14:25:06.214Z,14.17
2018-10-21T14:27:34.529Z,15.63
2018-10-21T14:30:03.022Z,12.50
2018-10-21T14:32:31.307Z,20.97
2018-10-21T14:34:59.840Z,31.23
2018-10-21T14:37:28.190Z,23.23
2018-10-21T14:39:56.540Z,30.73
2018-10-21T14:42:24.885Z,16.30
2018-10-21T14:44:53.215Z,13.83
2018-10-21T14:47:21.572Z,12.40
2018-10-21T14:49:49.915Z,20.27
2018-10-21T14:52:18.276Z,22.97
2018-10-21T14:54:46.623Z,13.60
2018-10-21T14:57:15.004Z,15.63
2018-10-21T14:59:43.335Z,14.30
2018-10-21T15:02:11.733Z,10.57
2018-10-21T15:04:40.027Z,11.10
2018-10-21T15:07:08.401Z,12.10
2018-10-21T15:09:36.748Z,11.83
2018-10-21T15:12:05.487Z,14.47
2018-10-21T15:14:33.796Z,13.53
2018-10-21T15:17:02.137Z,15.37
2018-10-21T15:19:30.495Z,14.90
2018-10-21T15:21:58.819Z,12.53
2018-10-21T15:24:27.179Z,11.13
2018-10-21T15:26:55.498Z,13.07
2018-10-21T15:29:23.842Z,10.63
2018-10-21T15:31:52.156Z,9.83
2018-10-21T15:34:20.511Z,12.37
2018-10-21T15:36:49.011Z,11.83
2018-10-21T15:39:17.358Z,9.87
2018-10-21T15:41:45.735Z,12.37
2018-10-21T15:44:14.121Z,13.73
2018-10-21T15:46:42.431Z,10.47
2018-10-21T15:49:10.771Z,11.63
2018-10-21T15:51:39.111Z,9.77
2018-10-21T15:54:07.499Z,10.47
2018-10-21T15:56:35.869Z,8.80
2018-10-21T15:59:04.265Z,12.07
2018-10-21T16:01:32.602Z,8.63
2018-10-21T16:04:00.966Z,9.80
2018-10-21T16:06:29.292Z,10.40
2018-10-21T16:08:57.655Z,10.57
2018-10-21T16:11:25.979Z,9.40
2018-10-21T16:13:54.378Z,12.20
2018-10-21T16:16:22.824Z,7.97
2018-10-21T16:18:51.198Z,10.93
2018-10-21T16:21:19.547Z,10.80
2018-10-21T16:23:47.915Z,8.33
2018-10-21T16:26:16.288Z,9.57
2018-10-21T16:28:44.600Z,7.63
2018-10-21T16:31:12.932Z,10.03
2018-10-21T16:33:41.308Z,9.73
2018-10-21T16:36:09.660Z,10.83
2018-10-21T16:38:38.030Z,8.53
2018-10-21T16:41:06.784Z,9.77
2018-10-21T16:43:35.121Z,11.90
2018-10-21T16:46:03.759Z,9.37
2018-10-21T16:48:32.090Z,10.17
2018-10-21T16:51:00.538Z,10.13
2018-10-21T16:53:28.929Z,11.40
2018-10-21T16:55:57.223Z,8.30
2018-10-21T16:58:25.560Z,9.70
2018-10-21T17:00:54.051Z,9.47
2018-10-21T17:03:22.376Z,9.10
2018-10-21T17:05:50.680Z,10.60
2018-10-21T17:08:19.012Z,12.03
2018-10-21T17:10:47.400Z,8.63
2018-10-21T17:13:15.748Z,11.90
2018-10-21T17:15:44.166Z,9.43
2018-10-21T17:18:12.744Z,9.93
2018-10-21T17:20:41.090Z,12.23
2018-10-21T17:23:09.423Z,10.83
2018-10-21T17:25:37.773Z,12.40
2018-10-21T17:28:06.143Z,11.73
2018-10-21T17:30:34.554Z,13.27
2018-10-21T17:33:02.843Z,12.27
2018-10-21T17:35:31.190Z,15.27
2018-10-21T17:37:59.535Z,10.93
2018-10-21T17:40:27.985Z,14.63
2018-10-21T17:42:56.377Z,14.00
2018-10-21T17:45:24.693Z,17.90
2018-10-21T17:47:53.032Z,17.90
2018-10-21T17:50:21.388Z,27.27
2018-10-21T17:52:49.711Z,15.27
2018-10-21T17:55:18.144Z,20.57
2018-10-21T17:57:46.418Z,13.57
2018-10-21T18:00:15.167Z,14.67
2018-10-21T18:02:43.503Z,13.57
2018-10-21T18:05:13.130Z,13.53
2018-10-21T18:07:41.937Z,14.67
2018-10-21T18:10:10.710Z,13.27
2018-10-21T18:12:39.081Z,12.57
2018-10-21T18:15:08.288Z,13.00
2018-10-21T18:17:37.100Z,12.67
2018-10-21T18:20:06.277Z,12.30
2018-10-21T18:22:34.620Z,12.23
2018-10-21T18:25:02.990Z,13.00
2018-10-21T18:27:31.338Z,12.87
2018-10-21T18:29:59.673Z,11.13
2018-10-21T18:32:28.033Z,10.53
2018-10-21T18:34:56.399Z,12.10
2018-10-21T18:37:24.757Z,12.20
2018-10-21T18:39:53.139Z,11.50
2018-10-21T18:42:21.698Z,10.67
2018-10-21T18:44:50.075Z,11.13
2018-10-21T18:47:18.450Z,23.33
2018-10-21T18:49:46.783Z,20.63
2018-10-21T18:52:15.808Z,25.63
2018-10-21T18:54:44.110Z,14.83
2018-10-21T18:57:12.566Z,18.67
2018-10-21T18:59:40.933Z,17.93
2018-10-21T19:02:09.311Z,19.67
2018-10-21T19:04:37.719Z,10.23
2018-10-21T19:07:06.462Z,10.20
2018-10-21T19:09:34.773Z,9.23
2018-10-21T19:12:03.127Z,14.40
2018-10-21T19:14:31.656Z,11.13
2018-10-21T19:16:59.986Z,10.90
2018-10-21T19:19:28.362Z,14.53
2018-10-21T19:21:56.702Z,13.40
2018-10-21T19:24:25.062Z,13.53
2018-10-21T19:26:53.455Z,13.77
2018-10-21T19:29:21.804Z,12.87
2018-10-21T19:31:51.044Z,10.30
2018-10-21T19:34:19.481Z,11.03
2018-10-21T19:36:47.768Z,10.73
2018-10-21T19:39:16.110Z,13.07
2018-10-21T19:41:44.451Z,13.40
2018-10-21T19:44:12.800Z,12.73
2018-10-21T19:46:41.188Z,10.73
2018-10-21T19:49:09.941Z,11.43
2018-10-21T19:51:38.266Z,11.63
2018-10-21T19:54:06.695Z,10.07
2018-10-21T19:56:35.031Z,11.80
2018-10-21T19:59:04.451Z,10.13
2018-10-21T20:01:32.781Z,9.23
2018-10-21T20:04:01.302Z,10.23
2018-10-21T20:06:29.611Z,9.13
2018-10-21T20:08:57.966Z,10.10
2018-10-21T20:11:26.294Z,9.37
2018-10-21T20:13:54.663Z,11.47
2018-10-21T20:16:23.355Z,9.93
2018-10-21T20:18:52.066Z,14.87
2018-10-21T20:21:20.414Z,10.47
2018-10-21T20:23:48.811Z,11.17
2018-10-21T20:26:17.247Z,11.17
2018-10-21T20:28:45.606Z,9.13
2018-10-21T20:31:14.014Z,9.93
2018-10-21T20:33:42.621Z,10.23
2018-10-21T20:36:10.958Z,9.93
2018-10-21T20:38:39.731Z,12.77
2018-10-21T20:41:08.093Z,10.33
2018-10-21T20:43:36.448Z,10.17
2018-10-21T20:46:05.017Z,9.93
2018-10-21T20:48:33.306Z,8.37
2018-10-21T20:51:02.129Z,10.03
2018-10-21T20:53:30.417Z,12.13
2018-10-21T20:55:58.747Z,9.77
2018-10-21T20:58:27.140Z,9.60
2018-10-21T21:00:55.437Z,9.57
2018-10-21T21:03:23.773Z,11.97
2018-10-21T21:05:52.123Z,10.00
2018-10-21T21:08:20.536Z,10.47
2018-10-21T21:10:48.823Z,11.33
2018-10-21T21:13:17.150Z,12.90
2018-10-21T21:15:45.484Z,11.13
2018-10-21T21:18:13.904Z,10.77
2018-10-21T21:20:42.290Z,12.37
2018-10-21T21:23:10.575Z,9.80
2018-10-21T21:25:38.909Z,14.57
2018-10-21T21:28:07.883Z,12.43
2018-10-21T21:30:36.532Z,13.77
2018-10-21T21:33:05.455Z,13.10
2018-10-21T21:35:33.808Z,13.10
2018-10-21T21:38:02.134Z,15.47
2018-10-21T21:40:30.551Z,15.07
2018-10-21T21:42:58.896Z,13.20
2018-10-21T21:45:27.211Z,13.77
2018-10-21T21:47:55.630Z,16.13
2018-10-21T21:50:23.955Z,13.63
2018-10-21T21:52:52.336Z,15.60
2018-10-21T21:55:20.773Z,16.13
2018-10-21T21:57:49.117Z,14.57
2018-10-21T22:00:17.490Z,14.53
2018-10-21T22:02:45.802Z,13.80
2018-10-21T22:05:14.131Z,15.70
2018-10-21T22:07:42.477Z,15.13
2018-10-21T22:10:12.690Z,13.40
2018-10-21T22:12:41.549Z,14.63
2018-10-21T22:15:09.936Z,15.00
2018-10-21T22:17:38.920Z,17.50
2018-10-21T22:20:07.288Z,15.17
2018-10-21T22:22:35.641Z,14.43
2018-10-21T22:25:04.019Z,15.00
2018-10-21T22:27:32.355Z,15.43
2018-10-21T22:30:00.766Z,14.30
2018-10-21T22:32:29.085Z,16.97
2018-10-21T22:34:57.428Z,14.47
2018-10-21T22:37:25.783Z,16.47
2018-10-21T22:39:54.177Z,14.47
2018-10-21T22:42:22.509Z,15.20
2018-10-21T22:44:50.850Z,19.40
2018-10-21T22:47:19.189Z,13.77
2018-10-21T22:49:47.518Z,15.70
2018-10-21T22:52:15.927Z,16.70
2018-10-21T22:54:44.351Z,17.60
2018-10-21T22:57:17.215Z,16.87
2018-10-21T22:59:46.570Z,17.33
2018-10-21T23:02:15.416Z,16.37
2018-10-21T23:04:43.979Z,15.43
2018-10-21T23:07:12.317Z,17.83
2018-10-21T23:09:40.688Z,16.83
2018-10-21T23:12:09.388Z,15.23
2018-10-21T23:14:38.036Z,16.37
2018-10-21T23:17:06.451Z,16.97
2018-10-21T23:19:45.527Z,16.63
2018-10-21T23:22:13.974Z,17.77
2018-10-21T23:24:42.507Z,16.33
2018-10-21T23:27:11.792Z,16.73
2018-10-21T23:29:40.721Z,17.00
2018-10-21T23:32:09.064Z,14.87
2018-10-21T23:34:37.487Z,18.63
2018-10-21T23:37:05.863Z,17.93
2018-10-21T23:39:34.215Z,15.70
2018-10-21T23:42:02.606Z,18.47
2018-10-21T23:44:31.275Z,17.33
2018-10-21T23:46:59.602Z,17.97
2018-10-21T23:53:02.725Z,18.47
2018-10-21T23:55:31.123Z,15.83
2018-10-21T23:57:59.498Z,14.40
